Airfield :
LOGIN :

Register | Disclaimer

   EN    FR    IT 

 










Legend :    VFR   Marginal VFR   IFR   Intensive IFR   Very Intensive IFR
Visi :
Ceiling :
>= 8 km
>= 3000ft
5 to 8 km
1000 to 3000 ft
1500m to 5 km
500 to 1000 ft
800 to 1500m
200 to 500 ft
< 800m
< 200 ft
Symbols :   Thunderstorms  Fog  Heavy snow  Heavy precipitations  Wind > 20 kt
SIGMETs :     Misc.  Thunderstorms  Icing  Turbulence  Mountain Waves  Volcanic Ashes






- Airport Elevation : 1959 ft
- IATA code : HOQ


EDQM - Hof Plauen

CURRENT METAR :
  • 291620Z 25010KT 2200 -SN FEW006 BKN013 BKN025 00/M01 Q1007 RESN

EXPIRED METARs :
  • 291550Z 25014KT 1600 R26/P2000N SN FEW006 SCT009 BKN013 00/M01 Q1006
  • 291520Z 24012KT 1500 R26/P2000N SHSN FEW007 BKN012 BKN023 M00/M01 Q1006 RESG
  • 291450Z 25014KT 9999 -SN FEW015 SCT022 BKN031 01/M01 Q1006
  • 291420Z 24011KT 9999 -SN SCT014 BKN024 01/M01 Q1006
  • 291350Z 24010KT 9999 SCT015 BKN023 01/M01 Q1005

TAF TAF EDQM
Valid from the 29 at 15:00 until the 30 at 00:00 UTC


291400Z 2915/2924 25012KT 9999 SCT012 BKN020
PROB40
TEMPO 2915/2921 27015G30KT 2000 -SHSN SCT005 BKN010CB
TEMPO 2921/2924 3000 BR BKN009



MET'MAP, your aeronautical weather chart ! - Copyright ORBIFLY December 2007 - Disclaimer

ORBIFLY MET'MAP TEAM :

Programming & Development : Alexandra Zaïnal
Concept & original design : Baudouin d'Aumeries
Assistance for programming : Marc-Olivier Méhu
Technical & hardware support : Manuel Goepfert

Contact : metmap@orbifly.com




SOURCES & CREDITS :

   NOAA